Great Reward — VRFZ6 — position and weather

sailwx.info

Track history (hours):
 
Tides and Currents Weather Stations Pressure Air Temp Water Temp Dewpoint Dewpoint Depression Visibility Wind Speed Wind Dir Waves Ship Positions

Great Reward

Last reported at 2017-Aug-26 01:35 UTC. Time now 2017-Sep-22 02:36 UTC.
Position N 34°56' E 018°49'.
Warning: this ship's position is 27 days out of date.

Length 178 m; draft 8.8 m.

Type: Cargo ship. MMSI: 338097928.

Date/timePositionNaut miles runAvg speedWind from/ knotsBaromVisibWave heightAir tempDewpointWater temp
2017-Aug-26 01:35N 34°56' E 018°49'111.4
2017-Aug-26 01:30N 34°56' E 018°48'1011.3
2017-Aug-26 00:36N 34°59' E 018°36'16711.4
2017-Aug-25 10:00N 35°45' E 015°20'2211.7
2017-Aug-25 08:09N 35°51' E 014°54'311.1
2017-Aug-25 07:50N 35°52' E 014°50'3 7.6
2017-Aug-25 07:29N 35°53' E 014°47'0 0.4
2017-Aug-25 07:00N 35°53' E 014°47'0 0.0
2017-Aug-25 06:24N 35°53' E 014°47'0 0.1
2017-Aug-25 06:00N 35°53' E 014°47'0 0.3
2017-Aug-25 05:30N 35°53' E 014°47'0 0.7
2017-Aug-25 05:00N 35°53' E 014°47'0 0.2
2017-Aug-25 04:30N 35°53' E 014°47'0 0.1
2017-Aug-25 04:00N 35°53' E 014°47'0 0.0
2017-Aug-25 03:30N 35°53' E 014°47'0 0.0
2017-Aug-25 03:00N 35°53' E 014°47'0 0.0
2017-Aug-25 02:30N 35°53' E 014°47'0 0.0
2017-Aug-25 01:57N 35°53' E 014°47'0 0.0
2017-Aug-25 01:15N 35°53' E 014°47'0 0.0
2017-Aug-25 00:39N 35°53' E 014°47'0 0.2
2017-Aug-25 00:30N 35°53' E 014°47'0 0.0
2017-Aug-24 23:57N 35°53' E 014°47'0 0.0
2017-Aug-24 23:30N 35°53' E 014°47'0 0.0
2017-Aug-24 23:00N 35°53' E 014°47'0 0.0
2017-Aug-24 22:27N 35°53' E 014°47'0 0.0
2017-Aug-24 21:57N 35°53' E 014°47'0 0.0
2017-Aug-24 21:21N 35°53' E 014°47'0 0.1
2017-Aug-24 20:57N 35°53' E 014°47'0 0.1
2017-Aug-24 20:28N 35°53' E 014°47'2 3.3
2017-Aug-24 20:00N 35°53' E 014°45'510.5
2017-Aug-24 19:30N 35°56' E 014°40'611.8
2017-Aug-24 19:00N 35°59' E 014°34'611.7
2017-Aug-24 18:30N 36°02' E 014°28'611.6
2017-Aug-24 18:00N 36°05' E 014°22'611.6
2017-Aug-24 17:30N 36°08' E 014°15'611.5
2017-Aug-24 17:00N 36°09' E 014°08'4 9.1
2017-Aug-24 16:30N 36°12' E 014°04'611.4
2017-Aug-24 16:00N 36°15' E 013°58'611.4
2017-Aug-24 15:30N 36°18' E 013°52'611.4
2017-Aug-24 15:00N 36°20' E 013°45'611.5
2017-Aug-24 14:30N 36°22' E 013°39'611.6
2017-Aug-24 14:00N 36°25' E 013°32'611.6
2017-Aug-24 13:28N 36°27' E 013°25'611.7
2017-Aug-24 13:00N 36°30' E 013°19'611.7
2017-Aug-24 12:30N 36°32' E 013°13'711.8
2017-Aug-24 11:56N 36°35' E 013°05'511.8
2017-Aug-24 11:30N 36°38' E 012°59'611.8
2017-Aug-24 11:00N 36°40' E 012°53'711.8
2017-Aug-24 10:25N 36°43' E 012°45'2311.6
2017-Aug-24 08:27N 36°53' E 012°20'13010.8
2017-Aug-23 20:28N 37°32' E 009°44'511.6
2017-Aug-23 20:00N 37°30' E 009°37'611.3
2017-Aug-23 19:29N 37°29' E 009°30'511.0
2017-Aug-23 19:00N 37°28' E 009°23'511.1
2017-Aug-23 18:30N 37°27' E 009°17'510.8
2017-Aug-23 18:00N 37°26' E 009°10'510.6
2017-Aug-23 17:30N 37°25' E 009°03'510.6
2017-Aug-23 17:00N 37°24' E 008°57'610.8
2017-Aug-23 16:29N 37°23' E 008°50'510.6
2017-Aug-23 16:00N 37°22' E 008°44'510.5
2017-Aug-23 15:30N 37°21' E 008°37'510.4
2017-Aug-23 14:59N 37°20' E 008°31'9 9.5
2017-Aug-23 14:00N 37°20' E 008°19'4 8.8
2017-Aug-23 13:30N 37°19' E 008°13'5 9.0
2017-Aug-23 12:59N 37°19' E 008°07'4 8.9
2017-Aug-23 12:29N 37°19' E 008°02'4 9.2
2017-Aug-23 12:00N 37°18' E 007°56'5 9.4
2017-Aug-23 11:27N 37°18' E 007°50'4110.0
2017-Aug-23 07:25N 37°15' E 006°59'2411.2
2017-Aug-23 05:18N 37°14' E 006°29'311.9
2017-Aug-23 05:00N 37°14' E 006°25'2711.3
2017-Aug-23 02:37N 37°12' E 005°51'211.3
2017-Aug-23 02:29N 37°12' E 005°49'611.5
2017-Aug-23 01:56N 37°12' E 005°41'7411.2
2017-Aug-22 19:20N 37°07' E 004°08'2010.8
2017-Aug-22 17:27N 37°06' E 003°43'1711.1
2017-Aug-22 15:57N 37°04' E 003°22'511.4
2017-Aug-22 15:30N 37°04' E 003°16'1811.3
2017-Aug-22 13:56N 37°02' E 002°54'611.2
2017-Aug-22 13:26N 37°02' E 002°47'2111.1
2017-Aug-22 11:31N 36°58' E 002°21'010.9
2017-Aug-22 11:30N 36°58' E 002°20'7510.8
2017-Aug-22 04:32N 36°46' E 000°48'511.5
2017-Aug-22 04:08N 36°45' E 000°42'211.6
2017-Aug-22 03:58N 36°45' E 000°40'611.4
2017-Aug-22 03:26N 36°43' E 000°32'511.0
2017-Aug-22 03:00N 36°43' E 000°26'611.0
2017-Aug-22 02:30N 36°42' E 000°19'510.8
2017-Aug-22 02:00N 36°41' E 000°13'510.7
2017-Aug-22 01:30N 36°40' E 000°06'510.7
2017-Aug-22 01:00N 36°40' W 000°00'510.6
2017-Aug-22 00:30N 36°39' W 000°07'710.4
2017-Aug-21 23:51N 36°37' W 000°15'410.4
2017-Aug-21 23:29N 36°37' W 000°20'510.7
2017-Aug-21 23:00N 36°36' W 000°26'510.7
2017-Aug-21 22:30N 36°35' W 000°33'810.8
2017-Aug-21 21:48N 36°34' W 000°42'310.6
2017-Aug-21 21:28N 36°33' W 000°47'510.5
2017-Aug-21 21:00N 36°32' W 000°52'610.5
2017-Aug-21 20:25N 36°31' W 001°00'710.6
2017-Aug-21 19:47N 36°30' W 001°08'610.5
2017-Aug-21 19:12N 36°29' W 001°16'210.5
2017-Aug-21 19:00N 36°29' W 001°18'1010.5
2017-Aug-21 18:01N 36°27' W 001°31'110.4
2017-Aug-21 17:55N 36°27' W 001°32'16811.3
2017-Aug-21 03:04N 36°03' W 004°59'511.7
2017-Aug-21 02:38N 36°02' W 005°05'212.3
2017-Aug-21 02:30N 36°02' W 005°07'612.2
2017-Aug-21 02:00N 36°01' W 005°14'612.4
2017-Aug-21 01:30N 35°59' W 005°21'611.9
2017-Aug-21 01:00N 35°57' W 005°28'610.8
2017-Aug-21 00:28N 35°55' W 005°35'5 9.1
2017-Aug-20 23:53N 35°55' W 005°42'3 7.1
2017-Aug-20 23:30N 35°54' W 005°45'4 8.2
2017-Aug-20 23:00N 35°54' W 005°50'13610.2
2017-Aug-20 09:38N 36°25' W 008°34'211.2
2017-Aug-20 09:26N 36°26' W 008°37'1311.4
2017-Aug-20 08:18N 36°29' W 008°52'311.6
2017-Aug-20 08:00N 36°30' W 008°56'612.0
2017-Aug-20 07:29N 36°31' W 009°04'611.9
2017-Aug-20 06:59N 36°33' W 009°11'611.8
2017-Aug-20 06:26N 36°35' W 009°18'511.7
2017-Aug-20 05:58N 36°39' W 009°23'711.5
2017-Aug-20 05:22N 36°44' W 009°29'511.7
2017-Aug-20 04:59N 36°48' W 009°33'1011.9
2017-Aug-20 04:08N 36°57' W 009°36'211.5
2017-Aug-20 03:57N 36°59' W 009°37'511.5
2017-Aug-20 03:30N 37°04' W 009°38'611.4
2017-Aug-20 03:00N 37°10' W 009°39'611.4
2017-Aug-20 02:30N 37°15' W 009°41'611.6
2017-Aug-20 01:59N 37°21' W 009°43'511.2
2017-Aug-20 01:30N 37°26' W 009°45'611.1
2017-Aug-20 01:00N 37°32' W 009°46'611.4
2017-Aug-20 00:30N 37°38' W 009°47'510.9
2017-Aug-20 00:00N 37°43' W 009°49'510.6
2017-Aug-19 23:30N 37°48' W 009°51'611.0
2017-Aug-19 23:00N 37°53' W 009°52'611.2
2017-Aug-19 22:30N 37°59' W 009°54'611.3
2017-Aug-19 22:00N 38°04' W 009°55'611.2
2017-Aug-19 21:30N 38°10' W 009°57'611.2
2017-Aug-19 21:00N 38°15' W 009°58'611.1
2017-Aug-19 20:30N 38°21' W 009°60'611.0
2017-Aug-19 20:00N 38°26' W 010°01'611.6
2017-Aug-19 19:30N 38°32' W 010°03'611.6
2017-Aug-19 19:00N 38°37' W 010°05'611.6
2017-Aug-19 18:30N 38°43' W 010°06'611.8
2017-Aug-19 18:00N 38°49' W 010°06'612.0
2017-Aug-19 17:30N 38°55' W 010°06'611.9
2017-Aug-19 17:00N 39°01' W 010°06'611.9
2017-Aug-19 16:30N 39°07' W 010°06'611.7
2017-Aug-19 16:00N 39°13' W 010°06'611.5
2017-Aug-19 15:30N 39°18' W 010°06'611.4
2017-Aug-19 14:59N 39°24' W 010°06'1211.9
2017-Aug-19 14:00N 39°36' W 010°06'611.8
2017-Aug-19 13:29N 39°42' W 010°06'611.8
2017-Aug-19 13:00N 39°48' W 010°06'611.6
2017-Aug-19 12:30N 39°54' W 010°06'611.5
2017-Aug-19 12:00N 39°59' W 010°06'611.1
2017-Aug-19 11:29N 40°05' W 010°06'511.2
2017-Aug-19 11:00N 40°11' W 010°06'2211.5
2017-Aug-19 09:06N 40°32' W 010°06'111.9
2017-Aug-19 09:00N 40°34' W 010°06'611.9
2017-Aug-19 08:30N 40°39' W 010°07'611.8
2017-Aug-19 08:00N 40°45' W 010°07'611.8
2017-Aug-19 07:30N 40°51' W 010°06'1011.9
2017-Aug-19 06:40N 41°01' W 010°06'51810.9
2017-Aug-17 07:18N 49°00' W 005°29'311.2
2017-Aug-17 06:59N 49°02' W 005°25'611.3
2017-Aug-17 06:28N 49°05' W 005°17'811.4
2017-Aug-17 05:46N 49°09' W 005°06'310.0
2017-Aug-17 05:27N 49°10' W 005°02'1010.2
2017-Aug-17 04:30N 49°16' W 004°49'611.3
2017-Aug-17 04:00N 49°19' W 004°42'710.9
2017-Aug-17 03:22N 49°22' W 004°33'1710.3
2017-Aug-17 01:43N 49°30' W 004°10'2 9.6
2017-Aug-17 01:30N 49°31' W 004°07'5 9.3
2017-Aug-17 00:56N 49°34' W 004°00'4 9.1
2017-Aug-17 00:29N 49°36' W 003°55'4 9.2
2017-Aug-17 00:00N 49°38' W 003°49'7 9.5
2017-Aug-16 23:17N 49°42' W 003°40'3 9.9
2017-Aug-16 23:00N 49°43' W 003°36'510.0
2017-Aug-16 22:30N 49°46' W 003°30'510.5
2017-Aug-16 22:00N 49°48' W 003°23'611.2
2017-Aug-16 21:30N 49°52' W 003°15'611.8
2017-Aug-16 21:00N 49°55' W 003°08'612.3
2017-Aug-16 20:30N 49°58' W 002°59'612.5
2017-Aug-16 20:00N 49°59' W 002°50'713.1
2017-Aug-16 19:30N 50°01' W 002°40'713.1
2017-Aug-16 19:00N 50°03' W 002°30'612.8
2017-Aug-16 18:30N 50°05' W 002°21'612.4
2017-Aug-16 18:00N 50°06' W 002°11'611.9
2017-Aug-16 17:30N 50°08' W 002°02'611.3
2017-Aug-16 17:00N 50°09' W 001°54'510.7
2017-Aug-16 16:30N 50°10' W 001°45'510.3
2017-Aug-16 16:00N 50°12' W 001°38'5 9.8
2017-Aug-16 15:30N 50°13' W 001°30'5 9.5
2017-Aug-16 15:00N 50°14' W 001°23'5 9.1
2017-Aug-16 14:30N 50°15' W 001°16'5 9.1
2017-Aug-16 14:00N 50°17' W 001°09'6 9.4
2017-Aug-16 13:20N 50°18' W 000°60'610.2
2017-Aug-16 12:46N 50°20' W 000°51'310.6
2017-Aug-16 12:30N 50°21' W 000°47'510.8
2017-Aug-16 12:00N 50°23' W 000°39'711.5
2017-Aug-16 11:24N 50°25' W 000°29'511.9
2017-Aug-16 11:00N 50°26' W 000°22'612.2
2017-Aug-16 10:30N 50°28' W 000°13'612.3
2017-Aug-16 10:00N 50°30' W 000°04'612.3
2017-Aug-16 09:30N 50°32' E 000°06'612.4
2017-Aug-16 09:00N 50°34' E 000°15'612.4
2017-Aug-16 08:30N 50°35' E 000°24'612.3
2017-Aug-16 08:00N 50°37' E 000°34'611.8
2017-Aug-16 07:30N 50°40' E 000°42'611.5
2017-Aug-16 07:00N 50°44' E 000°49'611.1
2017-Aug-16 06:30N 50°47' E 000°56'610.7
2017-Aug-16 05:59N 50°51' E 001°02'610.4
2017-Aug-16 05:27N 50°55' E 001°09'510.1
2017-Aug-16 05:00N 50°57' E 001°15'5 9.9
2017-Aug-16 04:30N 51°01' E 001°21'510.3
2017-Aug-16 04:00N 51°04' E 001°27'611.2
2017-Aug-16 03:30N 51°07' E 001°34'611.7
2017-Aug-16 03:00N 51°11' E 001°42'612.6
2017-Aug-16 02:30N 51°15' E 001°48'613.0
2017-Aug-16 02:00N 51°21' E 001°53'  
Track history (hours):
 
Tides and Currents Weather Stations Pressure Air Temp Water Temp Dewpoint Dewpoint Depression Visibility Wind Speed Wind Dir Waves Ship Positions

Great Reward

Last reported at 2017-Aug-26 01:35 UTC. Time now 2017-Sep-22 02:36 UTC.
Position N 34°56' E 018°49'.
Warning: this ship's position is 27 days out of date.

Length 178 m; draft 8.8 m.

Type: Cargo ship. MMSI: 338097928.

Date/timePositionNaut miles runAvg speedWind from/ knotsBaromVisibWave heightAir tempDewpointWater temp
2017-Aug-26 01:35N 34°56' E 018°49'111.4
2017-Aug-26 01:30N 34°56' E 018°48'1011.3
2017-Aug-26 00:36N 34°59' E 018°36'16711.4
2017-Aug-25 10:00N 35°45' E 015°20'2211.7
2017-Aug-25 08:09N 35°51' E 014°54'311.1
2017-Aug-25 07:50N 35°52' E 014°50'3 7.6
2017-Aug-25 07:29N 35°53' E 014°47'0 0.4
2017-Aug-25 07:00N 35°53' E 014°47'0 0.0
2017-Aug-25 06:24N 35°53' E 014°47'0 0.1
2017-Aug-25 06:00N 35°53' E 014°47'0 0.3
2017-Aug-25 05:30N 35°53' E 014°47'0 0.7
2017-Aug-25 05:00N 35°53' E 014°47'0 0.2
2017-Aug-25 04:30N 35°53' E 014°47'0 0.1
2017-Aug-25 04:00N 35°53' E 014°47'0 0.0
2017-Aug-25 03:30N 35°53' E 014°47'0 0.0
2017-Aug-25 03:00N 35°53' E 014°47'0 0.0
2017-Aug-25 02:30N 35°53' E 014°47'0 0.0
2017-Aug-25 01:57N 35°53' E 014°47'0 0.0
2017-Aug-25 01:15N 35°53' E 014°47'0 0.0
2017-Aug-25 00:39N 35°53' E 014°47'0 0.2
2017-Aug-25 00:30N 35°53' E 014°47'0 0.0
2017-Aug-24 23:57N 35°53' E 014°47'0 0.0
2017-Aug-24 23:30N 35°53' E 014°47'0 0.0
2017-Aug-24 23:00N 35°53' E 014°47'0 0.0
2017-Aug-24 22:27N 35°53' E 014°47'0 0.0
2017-Aug-24 21:57N 35°53' E 014°47'0 0.0
2017-Aug-24 21:21N 35°53' E 014°47'0 0.1
2017-Aug-24 20:57N 35°53' E 014°47'0 0.1
2017-Aug-24 20:28N 35°53' E 014°47'2 3.3
2017-Aug-24 20:00N 35°53' E 014°45'510.5
2017-Aug-24 19:30N 35°56' E 014°40'611.8
2017-Aug-24 19:00N 35°59' E 014°34'611.7
2017-Aug-24 18:30N 36°02' E 014°28'611.6
2017-Aug-24 18:00N 36°05' E 014°22'611.6
2017-Aug-24 17:30N 36°08' E 014°15'611.5
2017-Aug-24 17:00N 36°09' E 014°08'4 9.1
2017-Aug-24 16:30N 36°12' E 014°04'611.4
2017-Aug-24 16:00N 36°15' E 013°58'611.4
2017-Aug-24 15:30N 36°18' E 013°52'611.4
2017-Aug-24 15:00N 36°20' E 013°45'611.5
2017-Aug-24 14:30N 36°22' E 013°39'611.6
2017-Aug-24 14:00N 36°25' E 013°32'611.6
2017-Aug-24 13:28N 36°27' E 013°25'611.7
2017-Aug-24 13:00N 36°30' E 013°19'611.7
2017-Aug-24 12:30N 36°32' E 013°13'711.8
2017-Aug-24 11:56N 36°35' E 013°05'511.8
2017-Aug-24 11:30N 36°38' E 012°59'611.8
2017-Aug-24 11:00N 36°40' E 012°53'711.8
2017-Aug-24 10:25N 36°43' E 012°45'2311.6
2017-Aug-24 08:27N 36°53' E 012°20'13010.8
2017-Aug-23 20:28N 37°32' E 009°44'511.6
2017-Aug-23 20:00N 37°30' E 009°37'611.3
2017-Aug-23 19:29N 37°29' E 009°30'511.0
2017-Aug-23 19:00N 37°28' E 009°23'511.1
2017-Aug-23 18:30N 37°27' E 009°17'510.8
2017-Aug-23 18:00N 37°26' E 009°10'510.6
2017-Aug-23 17:30N 37°25' E 009°03'510.6
2017-Aug-23 17:00N 37°24' E 008°57'610.8
2017-Aug-23 16:29N 37°23' E 008°50'510.6
2017-Aug-23 16:00N 37°22' E 008°44'510.5
2017-Aug-23 15:30N 37°21' E 008°37'510.4
2017-Aug-23 14:59N 37°20' E 008°31'9 9.5
2017-Aug-23 14:00N 37°20' E 008°19'4 8.8
2017-Aug-23 13:30N 37°19' E 008°13'5 9.0
2017-Aug-23 12:59N 37°19' E 008°07'4 8.9
2017-Aug-23 12:29N 37°19' E 008°02'4 9.2
2017-Aug-23 12:00N 37°18' E 007°56'5 9.4
2017-Aug-23 11:27N 37°18' E 007°50'4110.0
2017-Aug-23 07:25N 37°15' E 006°59'2411.2
2017-Aug-23 05:18N 37°14' E 006°29'311.9
2017-Aug-23 05:00N 37°14' E 006°25'2711.3
2017-Aug-23 02:37N 37°12' E 005°51'211.3
2017-Aug-23 02:29N 37°12' E 005°49'611.5
2017-Aug-23 01:56N 37°12' E 005°41'7411.2
2017-Aug-22 19:20N 37°07' E 004°08'2010.8
2017-Aug-22 17:27N 37°06' E 003°43'1711.1
2017-Aug-22 15:57N 37°04' E 003°22'511.4
2017-Aug-22 15:30N 37°04' E 003°16'1811.3
2017-Aug-22 13:56N 37°02' E 002°54'611.2
2017-Aug-22 13:26N 37°02' E 002°47'2111.1
2017-Aug-22 11:31N 36°58' E 002°21'010.9
2017-Aug-22 11:30N 36°58' E 002°20'7510.8
2017-Aug-22 04:32N 36°46' E 000°48'511.5
2017-Aug-22 04:08N 36°45' E 000°42'211.6
2017-Aug-22 03:58N 36°45' E 000°40'611.4
2017-Aug-22 03:26N 36°43' E 000°32'511.0
2017-Aug-22 03:00N 36°43' E 000°26'611.0
2017-Aug-22 02:30N 36°42' E 000°19'510.8
2017-Aug-22 02:00N 36°41' E 000°13'510.7
2017-Aug-22 01:30N 36°40' E 000°06'510.7
2017-Aug-22 01:00N 36°40' W 000°00'510.6
2017-Aug-22 00:30N 36°39' W 000°07'710.4
2017-Aug-21 23:51N 36°37' W 000°15'410.4
2017-Aug-21 23:29N 36°37' W 000°20'510.7
2017-Aug-21 23:00N 36°36' W 000°26'510.7
2017-Aug-21 22:30N 36°35' W 000°33'810.8
2017-Aug-21 21:48N 36°34' W 000°42'310.6
2017-Aug-21 21:28N 36°33' W 000°47'510.5
2017-Aug-21 21:00N 36°32' W 000°52'610.5
2017-Aug-21 20:25N 36°31' W 001°00'710.6
2017-Aug-21 19:47N 36°30' W 001°08'610.5
2017-Aug-21 19:12N 36°29' W 001°16'210.5
2017-Aug-21 19:00N 36°29' W 001°18'1010.5
2017-Aug-21 18:01N 36°27' W 001°31'110.4
2017-Aug-21 17:55N 36°27' W 001°32'16811.3
2017-Aug-21 03:04N 36°03' W 004°59'511.7
2017-Aug-21 02:38N 36°02' W 005°05'212.3
2017-Aug-21 02:30N 36°02' W 005°07'612.2
2017-Aug-21 02:00N 36°01' W 005°14'612.4
2017-Aug-21 01:30N 35°59' W 005°21'611.9
2017-Aug-21 01:00N 35°57' W 005°28'610.8
2017-Aug-21 00:28N 35°55' W 005°35'5 9.1
2017-Aug-20 23:53N 35°55' W 005°42'3 7.1
2017-Aug-20 23:30N 35°54' W 005°45'4 8.2
2017-Aug-20 23:00N 35°54' W 005°50'13610.2
2017-Aug-20 09:38N 36°25' W 008°34'211.2
2017-Aug-20 09:26N 36°26' W 008°37'1311.4
2017-Aug-20 08:18N 36°29' W 008°52'311.6
2017-Aug-20 08:00N 36°30' W 008°56'612.0
2017-Aug-20 07:29N 36°31' W 009°04'611.9
2017-Aug-20 06:59N 36°33' W 009°11'611.8
2017-Aug-20 06:26N 36°35' W 009°18'511.7
2017-Aug-20 05:58N 36°39' W 009°23'711.5
2017-Aug-20 05:22N 36°44' W 009°29'511.7
2017-Aug-20 04:59N 36°48' W 009°33'1011.9
2017-Aug-20 04:08N 36°57' W 009°36'211.5
2017-Aug-20 03:57N 36°59' W 009°37'511.5
2017-Aug-20 03:30N 37°04' W 009°38'611.4
2017-Aug-20 03:00N 37°10' W 009°39'611.4
2017-Aug-20 02:30N 37°15' W 009°41'611.6
2017-Aug-20 01:59N 37°21' W 009°43'511.2
2017-Aug-20 01:30N 37°26' W 009°45'611.1
2017-Aug-20 01:00N 37°32' W 009°46'611.4
2017-Aug-20 00:30N 37°38' W 009°47'510.9
2017-Aug-20 00:00N 37°43' W 009°49'510.6
2017-Aug-19 23:30N 37°48' W 009°51'611.0
2017-Aug-19 23:00N 37°53' W 009°52'611.2
2017-Aug-19 22:30N 37°59' W 009°54'611.3
2017-Aug-19 22:00N 38°04' W 009°55'611.2
2017-Aug-19 21:30N 38°10' W 009°57'611.2
2017-Aug-19 21:00N 38°15' W 009°58'611.1
2017-Aug-19 20:30N 38°21' W 009°60'611.0
2017-Aug-19 20:00N 38°26' W 010°01'611.6
2017-Aug-19 19:30N 38°32' W 010°03'611.6
2017-Aug-19 19:00N 38°37' W 010°05'611.6
2017-Aug-19 18:30N 38°43' W 010°06'611.8
2017-Aug-19 18:00N 38°49' W 010°06'612.0
2017-Aug-19 17:30N 38°55' W 010°06'611.9
2017-Aug-19 17:00N 39°01' W 010°06'611.9
2017-Aug-19 16:30N 39°07' W 010°06'611.7
2017-Aug-19 16:00N 39°13' W 010°06'611.5
2017-Aug-19 15:30N 39°18' W 010°06'611.4
2017-Aug-19 14:59N 39°24' W 010°06'1211.9
2017-Aug-19 14:00N 39°36' W 010°06'611.8
2017-Aug-19 13:29N 39°42' W 010°06'611.8
2017-Aug-19 13:00N 39°48' W 010°06'611.6
2017-Aug-19 12:30N 39°54' W 010°06'611.5
2017-Aug-19 12:00N 39°59' W 010°06'611.1
2017-Aug-19 11:29N 40°05' W 010°06'511.2
2017-Aug-19 11:00N 40°11' W 010°06'2211.5
2017-Aug-19 09:06N 40°32' W 010°06'111.9
2017-Aug-19 09:00N 40°34' W 010°06'611.9
2017-Aug-19 08:30N 40°39' W 010°07'611.8
2017-Aug-19 08:00N 40°45' W 010°07'611.8
2017-Aug-19 07:30N 40°51' W 010°06'1011.9
2017-Aug-19 06:40N 41°01' W 010°06'51810.9
2017-Aug-17 07:18N 49°00' W 005°29'311.2
2017-Aug-17 06:59N 49°02' W 005°25'611.3
2017-Aug-17 06:28N 49°05' W 005°17'811.4
2017-Aug-17 05:46N 49°09' W 005°06'310.0
2017-Aug-17 05:27N 49°10' W 005°02'1010.2
2017-Aug-17 04:30N 49°16' W 004°49'611.3
2017-Aug-17 04:00N 49°19' W 004°42'710.9
2017-Aug-17 03:22N 49°22' W 004°33'1710.3
2017-Aug-17 01:43N 49°30' W 004°10'2 9.6
2017-Aug-17 01:30N 49°31' W 004°07'5 9.3
2017-Aug-17 00:56N 49°34' W 004°00'4 9.1
2017-Aug-17 00:29N 49°36' W 003°55'4 9.2
2017-Aug-17 00:00N 49°38' W 003°49'7 9.5
2017-Aug-16 23:17N 49°42' W 003°40'3 9.9
2017-Aug-16 23:00N 49°43' W 003°36'510.0
2017-Aug-16 22:30N 49°46' W 003°30'510.5
2017-Aug-16 22:00N 49°48' W 003°23'611.2
2017-Aug-16 21:30N 49°52' W 003°15'611.8
2017-Aug-16 21:00N 49°55' W 003°08'612.3
2017-Aug-16 20:30N 49°58' W 002°59'612.5
2017-Aug-16 20:00N 49°59' W 002°50'713.1
2017-Aug-16 19:30N 50°01' W 002°40'713.1
2017-Aug-16 19:00N 50°03' W 002°30'612.8
2017-Aug-16 18:30N 50°05' W 002°21'612.4
2017-Aug-16 18:00N 50°06' W 002°11'611.9
2017-Aug-16 17:30N 50°08' W 002°02'611.3
2017-Aug-16 17:00N 50°09' W 001°54'510.7
2017-Aug-16 16:30N 50°10' W 001°45'510.3
2017-Aug-16 16:00N 50°12' W 001°38'5 9.8
2017-Aug-16 15:30N 50°13' W 001°30'5 9.5
2017-Aug-16 15:00N 50°14' W 001°23'5 9.1
2017-Aug-16 14:30N 50°15' W 001°16'5 9.1
2017-Aug-16 14:00N 50°17' W 001°09'6 9.4
2017-Aug-16 13:20N 50°18' W 000°60'610.2
2017-Aug-16 12:46N 50°20' W 000°51'310.6
2017-Aug-16 12:30N 50°21' W 000°47'510.8
2017-Aug-16 12:00N 50°23' W 000°39'711.5
2017-Aug-16 11:24N 50°25' W 000°29'511.9
2017-Aug-16 11:00N 50°26' W 000°22'612.2
2017-Aug-16 10:30N 50°28' W 000°13'612.3
2017-Aug-16 10:00N 50°30' W 000°04'612.3
2017-Aug-16 09:30N 50°32' E 000°06'612.4
2017-Aug-16 09:00N 50°34' E 000°15'612.4
2017-Aug-16 08:30N 50°35' E 000°24'612.3
2017-Aug-16 08:00N 50°37' E 000°34'611.8
2017-Aug-16 07:30N 50°40' E 000°42'611.5
2017-Aug-16 07:00N 50°44' E 000°49'611.1
2017-Aug-16 06:30N 50°47' E 000°56'610.7
2017-Aug-16 05:59N 50°51' E 001°02'610.4
2017-Aug-16 05:27N 50°55' E 001°09'510.1
2017-Aug-16 05:00N 50°57' E 001°15'5 9.9
2017-Aug-16 04:30N 51°01' E 001°21'510.3
2017-Aug-16 04:00N 51°04' E 001°27'611.2
2017-Aug-16 03:30N 51°07' E 001°34'611.7
2017-Aug-16 03:00N 51°11' E 001°42'612.6
2017-Aug-16 02:30N 51°15' E 001°48'613.0
2017-Aug-16 02:00N 51°21' E 001°53'  

Dump ship's entire track history